Time;durP1;ratioP1;P1;durP2;ratioP2;P2;SDS_P1;SDS_P2;PMS_P1;PMS_P2;Temp;Humidity;BMP_temperature;BMP_pressure;BME280_temperature;BME280_humidity;BME280_pressure;Samples;Min_cycle;Max_cycle;Signal;HPM_P1;HPM_P2
2023/11/11 00:01:42;;;;;;;5.35;0.57;;;6.50;99.90;;;;;;5026473;28;20034;-78
2023/11/11 00:04:08;;;;;;;5.88;0.63;;;6.50;99.90;;;;;;5024055;28;20041;-77
2023/11/11 00:06:33;;;;;;;2.25;0.85;;;6.50;99.90;;;;;;5022324;28;20371;-77
2023/11/11 00:08:59;;;;;;;5.38;0.98;;;6.50;99.90;;;;;;5027674;28;20120;-77
2023/11/11 00:11:25;;;;;;;2.78;0.60;;;6.40;99.90;;;;;;5022739;28;20040;-77
2023/11/11 00:13:56;;;;;;;1.70;0.52;;;6.40;99.90;;;;;;5033455;28;20025;-77
2023/11/11 00:16:22;;;;;;;5.07;0.80;;;6.40;99.90;;;;;;5021785;28;20037;-77
2023/11/11 00:18:48;;;;;;;4.35;1.08;;;6.30;99.90;;;;;;5048418;28;20061;-77
2023/11/11 00:21:14;;;;;;;6.60;0.90;;;6.30;99.90;;;;;;5031002;28;20520;-76
2023/11/11 00:23:39;;;;;;;3.55;0.73;;;6.30;99.90;;;;;;5031197;28;20044;-76
2023/11/11 00:26:05;;;;;;;5.32;0.80;;;6.20;99.90;;;;;;5022748;28;20021;-78
2023/11/11 00:28:31;;;;;;;3.67;0.75;;;6.20;99.90;;;;;;5029438;28;20116;-76
2023/11/11 00:30:56;;;;;;;2.78;0.52;;;6.20;99.90;;;;;;5021669;28;20032;-77
2023/11/11 00:33:22;;;;;;;2.70;0.57;;;6.30;99.90;;;;;;5029500;28;20029;-75
2023/11/11 00:35:48;;;;;;;3.00;0.70;;;6.30;99.90;;;;;;5039082;28;20041;-75
2023/11/11 00:38:14;;;;;;;2.90;0.77;;;6.40;99.90;;;;;;5030965;28;20039;-74
2023/11/11 00:40:40;;;;;;;2.22;0.38;;;6.40;99.90;;;;;;5035852;28;20057;-76
2023/11/11 00:43:07;;;;;;;6.43;0.50;;;6.60;99.90;;;;;;5029310;28;20041;-76
2023/11/11 00:45:33;;;;;;;1.75;0.30;;;6.60;99.90;;;;;;5030116;28;20051;-77
2023/11/11 00:48:00;;;;;;;0.55;0.15;;;6.60;99.90;;;;;;5034074;28;20475;-78
2023/11/11 00:50:26;;;;;;;2.88;0.20;;;6.70;99.90;;;;;;5027071;28;20018;-78
2023/11/11 00:52:52;;;;;;;2.40;0.30;;;6.60;99.90;;;;;;5027563;28;20031;-77
2023/11/11 00:55:17;;;;;;;3.72;0.50;;;6.60;99.90;;;;;;5029971;28;20079;-76
2023/11/11 00:57:44;;;;;;;4.13;0.40;;;6.50;99.90;;;;;;5018663;28;20758;-77
2023/11/11 01:00:10;;;;;;;2.67;0.40;;;6.50;99.90;;;;;;5018969;28;20028;-76
2023/11/11 01:02:37;;;;;;;7.22;1.95;;;6.50;99.90;;;;;;5032968;28;20017;-77
2023/11/11 01:05:02;;;;;;;3.17;0.77;;;6.40;99.90;;;;;;5025634;28;20498;-77
2023/11/11 01:07:28;;;;;;;4.53;0.30;;;6.40;99.90;;;;;;5013713;28;20033;-78
2023/11/11 01:09:54;;;;;;;1.75;0.32;;;6.40;99.90;;;;;;5020846;28;20025;-77
2023/11/11 01:12:22;;;;;;;3.65;0.30;;;6.40;99.90;;;;;;5037915;28;20253;-77
2023/11/11 01:14:50;;;;;;;1.27;0.40;;;6.40;99.90;;;;;;5013683;28;20633;-78
2023/11/11 01:17:16;;;;;;;2.33;0.38;;;6.40;99.90;;;;;;5014337;28;20033;-77
2023/11/11 01:19:42;;;;;;;9.73;0.73;;;6.40;99.90;;;;;;5031166;28;20060;-77
2023/11/11 01:22:13;;;;;;;3.15;0.60;;;6.40;99.90;;;;;;5040534;28;20082;-78
2023/11/11 01:24:40;;;;;;;6.57;1.67;;;6.40;99.90;;;;;;5020465;28;20061;-78
2023/11/11 01:27:07;;;;;;;1.83;0.38;;;6.40;99.90;;;;;;5018673;28;20131;-75
2023/11/11 01:29:33;;;;;;;3.58;0.30;;;6.40;99.90;;;;;;5017496;28;20037;-77
2023/11/11 01:31:58;;;;;;;7.32;1.05;;;6.40;99.90;;;;;;5023113;28;20033;-77
2023/11/11 01:34:24;;;;;;;5.40;0.43;;;6.40;99.90;;;;;;5029736;28;20049;-77
2023/11/11 01:36:50;;;;;;;1.77;0.20;;;6.40;99.90;;;;;;5031257;28;20071;-76
2023/11/11 01:39:15;;;;;;;5.75;0.50;;;6.50;99.90;;;;;;5039683;28;20034;-77
2023/11/11 01:41:41;;;;;;;2.08;0.25;;;6.50;99.90;;;;;;5034920;28;20091;-76
2023/11/11 01:44:07;;;;;;;4.20;0.98;;;6.50;99.90;;;;;;5004077;28;20527;-77
2023/11/11 01:46:32;;;;;;;4.45;0.32;;;6.50;99.90;;;;;;5016860;28;20038;-78
2023/11/11 01:49:00;;;;;;;5.63;0.75;;;6.50;99.90;;;;;;5013732;28;20079;-77
2023/11/11 01:51:27;;;;;;;6.90;1.00;;;6.50;99.90;;;;;;5006051;28;20117;-77
2023/11/11 01:53:53;;;;;;;6.18;1.30;;;6.60;99.90;;;;;;4994009;28;20041;-77
2023/11/11 01:56:19;;;;;;;1.95;0.32;;;6.50;99.90;;;;;;5013397;28;20490;-78
2023/11/11 01:58:45;;;;;;;1.88;0.43;;;6.50;99.90;;;;;;5028886;28;20033;-76
2023/11/11 02:01:11;;;;;;;1.85;0.10;;;6.40;99.90;;;;;;5015919;28;20093;-77
2023/11/11 02:03:37;;;;;;;0.30;0.20;;;6.40;99.90;;;;;;5011754;28;20041;-78
2023/11/11 02:06:05;;;;;;;2.67;0.52;;;6.30;99.90;;;;;;4993822;28;20549;-77
2023/11/11 02:08:33;;;;;;;2.63;0.65;;;6.30;99.90;;;;;;5026029;28;20033;-76
2023/11/11 02:11:00;;;;;;;7.20;1.13;;;6.30;99.90;;;;;;5005870;28;20037;-74
2023/11/11 02:13:29;;;;;;;2.72;0.13;;;6.20;99.90;;;;;;5008737;28;20040;-77
2023/11/11 02:15:56;;;;;;;0.70;0.20;;;6.20;99.90;;;;;;5012868;28;20073;-75
2023/11/11 02:18:22;;;;;;;1.67;0.10;;;6.10;99.90;;;;;;5014369;28;20073;-76
2023/11/11 02:20:49;;;;;;;3.42;0.32;;;6.20;99.90;;;;;;5007331;28;20057;-75
2023/11/11 02:23:16;;;;;;;1.63;0.20;;;6.10;99.90;;;;;;5001895;28;20513;-77
2023/11/11 02:25:42;;;;;;;2.65;0.20;;;6.00;99.90;;;;;;4992745;28;20042;-76
2023/11/11 02:28:07;;;;;;;5.93;0.73;;;6.00;99.90;;;;;;4998568;28;20124;-74
2023/11/11 02:30:33;;;;;;;1.00;0.20;;;5.90;99.90;;;;;;5003887;28;20069;-79
2023/11/11 02:51:06;;;;;;;2.17;0.30;;;5.90;99.90;;;;;;5048648;23;20057;-75
2023/11/11 02:53:32;;;;;;;4.80;0.20;;;5.90;99.90;;;;;;4992286;28;20027;-77
2023/11/11 02:55:57;;;;;;;5.38;0.85;;;5.90;99.90;;;;;;4982851;28;20030;-78
2023/11/11 02:58:23;;;;;;;1.10;0.30;;;6.00;99.90;;;;;;4982631;28;20022;-79
2023/11/11 03:00:50;;;;;;;2.80;0.32;;;6.10;99.90;;;;;;4965175;28;20539;-80
2023/11/11 03:03:15;;;;;;;3.45;0.40;;;6.10;99.90;;;;;;4987035;28;20047;-78
2023/11/11 03:05:41;;;;;;;1.92;0.30;;;6.10;99.90;;;;;;4978799;28;20101;-76
2023/11/11 03:08:06;;;;;;;4.32;0.60;;;6.10;99.90;;;;;;4978224;28;20047;-77
2023/11/11 03:10:32;;;;;;;2.78;0.30;;;6.10;99.90;;;;;;4963858;28;20050;-77
2023/11/11 03:12:58;;;;;;;6.80;0.40;;;6.10;99.90;;;;;;4965243;28;20039;-78
2023/11/11 03:15:24;;;;;;;7.25;0.52;;;6.10;99.90;;;;;;4978671;28;20023;-78
2023/11/11 03:17:50;;;;;;;5.38;0.80;;;6.20;99.90;;;;;;4960804;28;20027;-78
2023/11/11 03:20:16;;;;;;;2.90;0.30;;;6.30;99.90;;;;;;4966682;28;20027;-79
2023/11/11 03:22:41;;;;;;;2.17;0.32;;;6.30;99.90;;;;;;4975494;28;20043;-77
2023/11/11 03:25:08;;;;;;;5.97;0.20;;;6.30;99.90;;;;;;4960776;28;20027;-77
2023/11/11 03:27:34;;;;;;;1.77;0.35;;;6.30;99.90;;;;;;4982002;28;20533;-78
2023/11/11 03:29:59;;;;;;;1.48;0.20;;;6.30;99.90;;;;;;4975372;28;20069;-76
2023/11/11 03:32:25;;;;;;;1.77;0.40;;;6.30;99.90;;;;;;4972714;28;20030;-75
2023/11/11 03:34:51;;;;;;;4.20;0.75;;;6.40;99.90;;;;;;4964488;28;20400;-78
2023/11/11 03:37:17;;;;;;;6.45;1.15;;;6.40;99.90;;;;;;4964685;28;20031;-78
2023/11/11 03:39:43;;;;;;;4.40;0.57;;;6.40;99.90;;;;;;4983012;28;20104;-78
2023/11/11 03:42:10;;;;;;;4.38;0.75;;;6.40;99.90;;;;;;4967293;28;20033;-76
2023/11/11 03:44:35;;;;;;;3.00;0.50;;;6.50;99.90;;;;;;4970240;28;20488;-77
2023/11/11 03:47:01;;;;;;;5.75;0.60;;;6.50;99.90;;;;;;4965483;28;20129;-78
2023/11/11 03:49:26;;;;;;;2.85;0.68;;;6.50;99.90;;;;;;4987642;28;20034;-79
2023/11/11 03:51:52;;;;;;;2.13;0.40;;;6.50;99.90;;;;;;4983449;28;20496;-77
2023/11/11 03:54:18;;;;;;;1.73;0.30;;;6.50;99.90;;;;;;4998129;28;20109;-78
2023/11/11 03:56:44;;;;;;;1.92;0.57;;;6.50;99.90;;;;;;5001827;28;20105;-78
2023/11/11 03:59:10;;;;;;;3.08;0.30;;;6.50;99.90;;;;;;5001752;28;20121;-77
2023/11/11 04:01:36;;;;;;;3.63;0.60;;;6.50;99.90;;;;;;4981397;28;20173;-77
2023/11/11 04:04:02;;;;;;;1.00;0.20;;;6.60;99.90;;;;;;4986742;28;20039;-77
2023/11/11 04:06:28;;;;;;;1.13;0.40;;;6.60;99.90;;;;;;4985666;28;20097;-78
2023/11/11 04:08:54;;;;;;;2.95;0.75;;;6.60;99.90;;;;;;5005997;28;20034;-77
2023/11/11 04:11:22;;;;;;;3.47;0.80;;;6.60;99.90;;;;;;4988582;28;20066;-75
2023/11/11 04:13:47;;;;;;;2.67;0.82;;;6.70;99.90;;;;;;4987324;28;20636;-75
2023/11/11 04:16:14;;;;;;;1.80;0.50;;;6.70;99.90;;;;;;4983852;28;20038;-77
2023/11/11 04:18:41;;;;;;;1.90;0.20;;;6.70;99.90;;;;;;4988397;28;20077;-76
2023/11/11 04:21:08;;;;;;;1.25;0.47;;;6.70;99.90;;;;;;4988904;28;20046;-76
2023/11/11 04:23:34;;;;;;;1.40;0.32;;;6.70;99.90;;;;;;4984263;28;20041;-77
2023/11/11 04:26:03;;;;;;;4.78;0.55;;;6.70;99.90;;;;;;5004551;28;20042;-77
2023/11/11 04:28:29;;;;;;;3.40;0.28;;;6.70;99.90;;;;;;5001524;28;20057;-77
2023/11/11 04:30:54;;;;;;;0.68;0.30;;;6.70;99.90;;;;;;5005953;28;20038;-77
2023/11/11 04:33:20;;;;;;;2.20;0.50;;;6.80;99.90;;;;;;4994618;28;20420;-79
2023/11/11 04:35:46;;;;;;;2.15;0.50;;;6.80;99.90;;;;;;5000450;28;20842;-79
2023/11/11 04:38:12;;;;;;;2.28;0.40;;;6.70;99.90;;;;;;5001500;28;20058;-77
2023/11/11 04:40:38;;;;;;;4.03;0.20;;;6.70;99.90;;;;;;4996688;28;20352;-77
2023/11/11 04:43:03;;;;;;;2.70;0.50;;;6.80;99.90;;;;;;5009363;28;20084;-77
2023/11/11 04:45:30;;;;;;;2.30;0.40;;;6.80;99.90;;;;;;5021077;28;20026;-78
2023/11/11 04:47:57;;;;;;;7.20;0.80;;;6.80;99.90;;;;;;5028745;28;20052;-77
2023/11/11 04:50:23;;;;;;;1.98;0.30;;;6.80;99.90;;;;;;5011795;28;20026;-77
2023/11/11 04:52:48;;;;;;;1.13;0.10;;;6.90;99.90;;;;;;5019492;28;20033;-77
2023/11/11 04:55:14;;;;;;;3.50;0.32;;;6.80;99.90;;;;;;5005949;28;20040;-77
2023/11/11 04:57:40;;;;;;;2.00;0.40;;;6.70;99.90;;;;;;5003183;28;20514;-77
2023/11/11 05:00:10;;;;;;;1.63;0.10;;;6.60;99.90;;;;;;5020829;28;20477;-77
2023/11/11 05:02:39;;;;;;;2.17;0.30;;;6.60;99.90;;;;;;5008757;28;20033;-79
2023/11/11 05:05:06;;;;;;;3.83;0.40;;;6.60;99.90;;;;;;5020906;28;20053;-76
2023/11/11 05:07:32;;;;;;;4.30;0.60;;;6.60;99.90;;;;;;5005551;28;20426;-77
2023/11/11 05:09:59;;;;;;;4.00;0.40;;;6.50;99.90;;;;;;5002288;28;20049;-77
2023/11/11 05:12:24;;;;;;;5.82;0.95;;;6.60;99.90;;;;;;5023124;28;20485;-74
2023/11/11 05:14:54;;;;;;;1.95;0.70;;;6.60;99.90;;;;;;5017985;28;20033;-77
2023/11/11 05:17:25;;;;;;;4.65;0.30;;;6.60;99.90;;;;;;5006646;28;20096;-76
2023/11/11 05:19:55;;;;;;;3.58;0.40;;;6.50;99.90;;;;;;5010347;28;20030;-75
2023/11/11 05:22:20;;;;;;;1.83;0.40;;;6.60;99.90;;;;;;5014458;28;20041;-78
2023/11/11 05:24:46;;;;;;;1.27;0.32;;;6.60;99.90;;;;;;4998760;28;20056;-78
2023/11/11 05:27:14;;;;;;;2.97;0.43;;;6.50;99.90;;;;;;5000546;28;20045;-77
2023/11/11 05:29:40;;;;;;;0.50;0.35;;;6.50;99.90;;;;;;5019618;28;20030;-78
2023/11/11 05:32:06;;;;;;;3.97;0.85;;;6.50;99.90;;;;;;5024246;28;20403;-78
2023/11/11 05:34:31;;;;;;;3.80;0.60;;;6.50;99.90;;;;;;5023037;28;20030;-76
2023/11/11 05:36:58;;;;;;;4.15;0.57;;;6.50;99.90;;;;;;5002718;28;20386;-78
2023/11/11 05:39:23;;;;;;;8.55;1.05;;;6.50;99.90;;;;;;5001582;28;20387;-78
2023/11/11 05:41:50;;;;;;;3.22;0.63;;;6.50;99.90;;;;;;5022480;28;20049;-77
2023/11/11 05:44:17;;;;;;;11.27;2.15;;;6.50;99.90;;;;;;5014990;28;20044;-77
2023/11/11 05:46:42;;;;;;;2.40;0.50;;;6.50;99.90;;;;;;5017958;28;20426;-80
2023/11/11 05:49:08;;;;;;;3.17;0.73;;;6.60;99.90;;;;;;5001562;28;20034;-75
2023/11/11 05:51:34;;;;;;;3.70;0.40;;;6.50;99.90;;;;;;5020083;28;20029;-78
2023/11/11 05:54:01;;;;;;;4.65;0.35;;;6.60;99.90;;;;;;5005955;28;20655;-77
2023/11/11 05:56:27;;;;;;;0.30;0.10;;;6.60;99.90;;;;;;5001756;28;20049;-77
2023/11/11 05:58:53;;;;;;;0.20;0.00;;;6.60;99.90;;;;;;5023565;28;20075;-76
2023/11/11 06:01:19;;;;;;;3.85;0.45;;;6.50;99.90;;;;;;5009399;28;20029;-79
2023/11/11 06:03:44;;;;;;;1.33;0.20;;;6.50;99.90;;;;;;5017698;28;20032;-79
2023/11/11 06:06:11;;;;;;;0.93;0.15;;;6.50;99.90;;;;;;4998401;28;20483;-77
2023/11/11 06:08:36;;;;;;;0.85;0.25;;;6.50;99.90;;;;;;5022478;28;20047;-78
2023/11/11 06:11:02;;;;;;;3.42;0.70;;;6.50;99.90;;;;;;5006941;28;20037;-77
2023/11/11 06:13:28;;;;;;;4.25;0.40;;;6.50;99.90;;;;;;5002687;28;20554;-77
2023/11/11 06:15:53;;;;;;;1.23;0.20;;;6.50;99.90;;;;;;5005391;28;20029;-78
2023/11/11 06:18:19;;;;;;;1.17;0.30;;;6.50;99.90;;;;;;4997668;28;20034;-77
2023/11/11 06:20:45;;;;;;;0.95;0.25;;;6.50;99.90;;;;;;5008241;28;20033;-77
2023/11/11 06:23:11;;;;;;;1.00;0.20;;;6.50;99.90;;;;;;5005065;28;20041;-77
2023/11/11 06:25:37;;;;;;;2.80;0.50;;;6.50;99.90;;;;;;5020613;28;20037;-76
2023/11/11 06:28:02;;;;;;;3.10;0.32;;;6.50;99.90;;;;;;5018432;28;20022;-77
2023/11/11 06:30:28;;;;;;;1.73;0.20;;;6.50;99.90;;;;;;5002910;28;20041;-76
2023/11/11 06:32:56;;;;;;;7.05;1.17;;;6.50;99.90;;;;;;5022047;28;20156;-77
2023/11/11 06:35:26;;;;;;;1.52;0.20;;;6.60;99.90;;;;;;5018837;28;20057;-78
2023/11/11 06:37:53;;;;;;;0.85;0.10;;;6.60;99.90;;;;;;4994278;28;20029;-76
2023/11/11 06:40:18;;;;;;;2.30;0.32;;;6.60;99.90;;;;;;5000304;28;20029;-77
2023/11/11 06:42:45;;;;;;;1.13;0.20;;;6.60;99.90;;;;;;4999423;28;20034;-77
2023/11/11 06:45:14;;;;;;;2.55;0.30;;;6.50;99.90;;;;;;5024346;28;20048;-76
2023/11/11 06:47:42;;;;;;;0.50;0.15;;;6.40;99.90;;;;;;5013365;28;20049;-75
2023/11/11 06:50:09;;;;;;;0.43;0.15;;;6.40;99.90;;;;;;5017429;28;20034;-77
2023/11/11 06:52:37;;;;;;;1.27;0.22;;;6.40;99.90;;;;;;5020907;28;20065;-76
2023/11/11 06:55:04;;;;;;;1.95;0.10;;;6.40;99.90;;;;;;5021936;28;20029;-77
2023/11/11 06:57:30;;;;;;;3.10;0.70;;;6.40;99.90;;;;;;5018739;28;20119;-76
2023/11/11 06:59:55;;;;;;;0.60;0.10;;;6.30;99.90;;;;;;4999536;28;20464;-76
2023/11/11 07:02:22;;;;;;;1.95;0.20;;;6.30;99.90;;;;;;5022771;28;20033;-79
2023/11/11 07:04:54;;;;;;;0.32;0.00;;;6.40;99.90;;;;;;5002164;28;20037;-75
2023/11/11 07:07:24;;;;;;;1.88;0.17;;;6.40;99.90;;;;;;5008044;28;20044;-78
2023/11/11 07:09:51;;;;;;;1.10;0.35;;;6.40;99.90;;;;;;5019620;28;20049;-77
2023/11/11 07:12:19;;;;;;;2.38;0.20;;;6.40;99.90;;;;;;5003489;28;20029;-76
2023/11/11 07:14:45;;;;;;;1.83;0.22;;;6.40;99.90;;;;;;5002306;28;20045;-75
2023/11/11 07:17:11;;;;;;;9.55;0.43;;;6.50;99.90;;;;;;4999372;28;20039;-77
2023/11/11 07:19:37;;;;;;;0.47;0.10;;;6.50;99.90;;;;;;4998341;28;20139;-77
2023/11/11 07:22:03;;;;;;;3.35;0.25;;;6.50;99.90;;;;;;5004331;28;20494;-76
2023/11/11 07:24:29;;;;;;;1.33;0.10;;;6.40;99.90;;;;;;5020633;28;20057;-77
2023/11/11 07:26:54;;;;;;;3.88;0.20;;;6.40;99.90;;;;;;5007740;28;20033;-78
2023/11/11 07:29:24;;;;;;;4.25;0.20;;;6.30;99.90;;;;;;5007486;28;20164;-76
2023/11/11 07:31:50;;;;;;;2.20;0.22;;;6.30;99.90;;;;;;4993465;28;20042;-77
2023/11/11 07:34:16;;;;;;;2.22;0.73;;;6.30;99.90;;;;;;5016237;28;20053;-78
2023/11/11 07:36:42;;;;;;;5.15;0.32;;;6.30;99.90;;;;;;4997716;28;20115;-76
2023/11/11 07:39:08;;;;;;;2.92;0.35;;;6.30;99.90;;;;;;5016447;28;20486;-76
2023/11/11 07:41:34;;;;;;;0.52;0.13;;;6.20;99.90;;;;;;4998863;28;20048;-75
2023/11/11 07:44:04;;;;;;;7.82;0.40;;;6.30;99.90;;;;;;4995930;28;20033;-78
2023/11/11 07:46:32;;;;;;;0.28;0.17;;;6.30;99.90;;;;;;4991608;28;20037;-77
2023/11/11 07:48:59;;;;;;;5.50;0.40;;;6.30;99.90;;;;;;4989395;28;20039;-77
2023/11/11 07:51:25;;;;;;;1.60;0.32;;;6.30;99.90;;;;;;4990988;28;20049;-77
2023/11/11 07:53:51;;;;;;;4.75;0.60;;;6.40;99.90;;;;;;4999923;28;20038;-77
2023/11/11 07:56:17;;;;;;;3.15;0.77;;;6.40;99.90;;;;;;5022082;28;20144;-78
2023/11/11 07:58:42;;;;;;;3.40;0.40;;;6.40;99.90;;;;;;5006100;28;20042;-76
2023/11/11 08:01:08;;;;;;;2.67;0.40;;;6.40;99.90;;;;;;5016661;28;20696;-78
2023/11/11 08:03:34;;;;;;;2.10;0.43;;;6.40;99.90;;;;;;4994063;28;20049;-75
2023/11/11 08:05:59;;;;;;;4.82;0.80;;;6.50;99.90;;;;;;5015545;28;20121;-78
2023/11/11 08:08:26;;;;;;;4.10;0.55;;;6.50;99.90;;;;;;4992543;28;20143;-77
2023/11/11 08:10:52;;;;;;;1.95;0.60;;;6.50;99.90;;;;;;4998557;28;20033;-76
2023/11/11 08:13:18;;;;;;;6.07;0.60;;;6.50;99.90;;;;;;4998404;28;20046;-75
2023/11/11 08:15:44;;;;;;;1.40;0.40;;;6.50;99.90;;;;;;5007496;28;20398;-77
2023/11/11 08:18:10;;;;;;;1.60;0.25;;;6.50;99.90;;;;;;5018553;28;20037;-78
2023/11/11 08:20:36;;;;;;;4.90;0.77;;;6.60;99.90;;;;;;4998632;28;20033;-76
2023/11/11 08:23:02;;;;;;;2.80;0.40;;;6.70;99.90;;;;;;5029861;28;20034;-76
2023/11/11 08:25:28;;;;;;;1.00;0.35;;;6.80;99.90;;;;;;5000991;28;20783;-77
2023/11/11 08:27:55;;;;;;;2.85;0.47;;;6.90;99.90;;;;;;4999351;28;20033;-76
2023/11/11 08:30:22;;;;;;;0.85;0.30;;;6.90;99.90;;;;;;5023428;28;20045;-78
2023/11/11 08:32:48;;;;;;;0.60;0.20;;;7.10;99.90;;;;;;4995261;28;20061;-74
2023/11/11 08:35:15;;;;;;;2.67;0.10;;;7.10;99.90;;;;;;5007154;28;20573;-75
2023/11/11 08:37:43;;;;;;;2.70;0.52;;;7.10;99.90;;;;;;4995784;28;20128;-75
2023/11/11 08:40:10;;;;;;;1.75;0.47;;;7.10;99.90;;;;;;5017331;28;20481;-76
2023/11/11 08:42:36;;;;;;;1.25;0.20;;;7.00;99.90;;;;;;5009499;28;20132;-74
2023/11/11 08:45:02;;;;;;;1.30;0.35;;;7.00;99.90;;;;;;5010864;28;20505;-75
2023/11/11 08:47:28;;;;;;;1.48;0.57;;;6.90;99.90;;;;;;5007580;28;20038;-76
2023/11/11 08:49:55;;;;;;;2.35;0.50;;;6.90;99.90;;;;;;4998772;28;20111;-74
2023/11/11 08:52:22;;;;;;;0.85;0.30;;;6.90;99.90;;;;;;4995203;28;20411;-75
2023/11/11 08:54:48;;;;;;;1.52;0.70;;;6.90;99.90;;;;;;5008256;28;20040;-76
2023/11/11 08:57:13;;;;;;;4.70;1.33;;;6.90;99.90;;;;;;5010337;28;20033;-78
2023/11/11 08:59:39;;;;;;;1.83;0.43;;;7.00;99.90;;;;;;5027102;28;20018;-75
2023/11/11 09:02:05;;;;;;;4.95;0.63;;;6.90;99.90;;;;;;5010063;28;20033;-76
2023/11/11 09:04:31;;;;;;;10.82;1.98;;;6.90;99.90;;;;;;4989771;28;20088;-75
2023/11/11 09:06:57;;;;;;;5.40;0.70;;;7.00;99.90;;;;;;4990628;28;20041;-74
2023/11/11 09:09:24;;;;;;;4.63;1.05;;;6.90;99.90;;;;;;5012291;28;20030;-75
2023/11/11 09:11:49;;;;;;;2.25;0.57;;;6.90;99.90;;;;;;4989452;28;20065;-77
2023/11/11 09:14:15;;;;;;;5.40;0.85;;;6.90;99.90;;;;;;4998501;28;20038;-74
2023/11/11 09:16:40;;;;;;;4.40;1.67;;;6.90;99.90;;;;;;4989627;28;20129;-76
2023/11/11 09:19:06;;;;;;;6.30;1.63;;;6.90;99.90;;;;;;4994419;28;20091;-77
2023/11/11 09:21:32;;;;;;;2.30;0.70;;;7.00;99.90;;;;;;5008883;28;20044;-75
2023/11/11 09:23:58;;;;;;;10.38;0.93;;;7.00;99.90;;;;;;5007411;28;21666;-78
2023/11/11 09:26:24;;;;;;;3.45;1.10;;;7.00;99.90;;;;;;5017288;28;20026;-77
2023/11/11 09:28:50;;;;;;;4.68;1.05;;;7.10;99.90;;;;;;5008615;28;20036;-76
2023/11/11 09:31:17;;;;;;;4.07;1.00;;;7.10;99.90;;;;;;5008884;28;20087;-76
2023/11/11 09:33:44;;;;;;;1.95;0.77;;;7.10;99.90;;;;;;4986007;28;20041;-76
2023/11/11 09:36:10;;;;;;;4.68;1.05;;;7.10;99.90;;;;;;4990083;28;20087;-76
2023/11/11 09:38:36;;;;;;;3.88;1.02;;;7.20;99.90;;;;;;5001075;28;20053;-75
2023/11/11 09:41:03;;;;;;;2.42;1.08;;;7.20;99.90;;;;;;4986075;28;20136;-76
2023/11/11 09:43:29;;;;;;;4.40;1.13;;;7.20;99.90;;;;;;4989680;28;20040;-76
2023/11/11 09:45:55;;;;;;;5.43;1.10;;;7.20;99.90;;;;;;4989940;28;20030;-75
2023/11/11 09:48:21;;;;;;;5.00;1.50;;;7.30;99.90;;;;;;4991099;28;20037;-75
2023/11/11 09:50:47;;;;;;;11.45;1.85;;;7.20;99.90;;;;;;4995134;28;20044;-75
2023/11/11 09:53:13;;;;;;;4.40;1.42;;;7.20;99.90;;;;;;5027876;28;20022;-76
2023/11/11 09:55:40;;;;;;;3.08;1.55;;;7.10;99.90;;;;;;5026844;28;20017;-77
2023/11/11 09:58:06;;;;;;;4.80;1.02;;;7.10;99.90;;;;;;5010131;28;20124;-76
2023/11/11 10:00:32;;;;;;;5.45;1.70;;;7.10;99.90;;;;;;5026929;28;20022;-75
2023/11/11 10:02:58;;;;;;;3.22;1.33;;;7.20;99.90;;;;;;5009940;28;20032;-74
2023/11/11 10:05:24;;;;;;;5.03;1.17;;;7.30;99.90;;;;;;5008970;28;20033;-76
2023/11/11 10:07:51;;;;;;;9.23;1.58;;;7.40;99.90;;;;;;4989664;28;20033;-75
2023/11/11 10:10:17;;;;;;;2.35;0.88;;;7.50;99.90;;;;;;4999264;28;20530;-75
2023/11/11 10:12:42;;;;;;;6.88;1.60;;;7.50;99.90;;;;;;4990052;28;20034;-75
2023/11/11 10:15:09;;;;;;;4.28;1.13;;;7.50;99.90;;;;;;5022350;28;20029;-75
2023/11/11 10:17:40;;;;;;;4.00;1.08;;;7.60;99.90;;;;;;4999049;28;20042;-75
2023/11/11 10:20:18;;;;;;;1.50;0.60;;;7.70;99.90;;;;;;5014121;28;20022;-73
2023/11/11 10:22:46;;;;;;;2.97;0.70;;;7.80;99.90;;;;;;5004333;28;20038;-75
2023/11/11 10:25:19;;;;;;;2.53;0.32;;;7.90;99.90;;;;;;5009196;28;20038;-75
2023/11/11 10:27:52;;;;;;;2.38;0.40;;;8.00;99.90;;;;;;4993330;28;20062;-76
2023/11/11 10:30:19;;;;;;;2.63;0.32;;;8.00;99.90;;;;;;4990474;28;20041;-76
2023/11/11 10:32:48;;;;;;;0.90;0.30;;;8.00;99.90;;;;;;4977599;28;20041;-76
2023/11/11 10:35:18;;;;;;;2.90;0.95;;;8.00;99.90;;;;;;4984048;28;20095;-76
2023/11/11 10:37:44;;;;;;;1.25;0.30;;;8.20;99.90;;;;;;4989120;28;20076;-75
2023/11/11 10:40:11;;;;;;;2.00;0.40;;;8.30;99.90;;;;;;4990437;28;20053;-76
2023/11/11 10:42:36;;;;;;;3.55;0.50;;;8.30;99.90;;;;;;4988906;28;20030;-75
2023/11/11 10:45:03;;;;;;;1.05;0.20;;;8.30;99.90;;;;;;5007102;28;20431;-77
2023/11/11 10:47:29;;;;;;;1.13;0.30;;;8.30;99.90;;;;;;5022925;28;20048;-76
2023/11/11 10:49:58;;;;;;;1.25;0.40;;;8.40;99.90;;;;;;5015097;28;20041;-74
2023/11/11 10:52:24;;;;;;;4.97;0.40;;;8.50;99.90;;;;;;4993265;28;20045;-75
2023/11/11 10:54:56;;;;;;;2.60;0.57;;;8.50;99.90;;;;;;5006500;28;20395;-75
2023/11/11 10:57:23;;;;;;;2.53;0.40;;;8.50;99.90;;;;;;4989225;28;20038;-77
2023/11/11 10:59:49;;;;;;;3.35;0.40;;;8.50;99.90;;;;;;4988880;28;20057;-76
2023/11/11 11:02:14;;;;;;;0.82;0.30;;;8.60;99.90;;;;;;4989478;28;20034;-75
2023/11/11 11:04:47;;;;;;;4.00;1.02;;;8.60;99.90;;;;;;5010230;28;20487;-75
2023/11/11 11:07:18;;;;;;;1.75;0.47;;;8.70;99.90;;;;;;4991654;28;20495;-76
2023/11/11 11:09:55;;;;;;;3.67;0.40;;;8.80;99.90;;;;;;4987947;28;20064;-76
2023/11/11 11:12:33;;;;;;;1.67;0.40;;;8.80;99.90;;;;;;4988888;28;20109;-76
2023/11/11 11:15:05;;;;;;;4.78;0.75;;;8.90;99.90;;;;;;4987788;28;20034;-75
2023/11/11 11:17:35;;;;;;;2.63;0.50;;;8.90;99.90;;;;;;4987030;28;20029;-76
2023/11/11 11:20:04;;;;;;;1.23;0.70;;;8.90;99.90;;;;;;5001156;28;20045;-75
2023/11/11 11:22:39;;;;;;;2.27;0.20;;;8.80;99.90;;;;;;5017425;28;20030;-76
2023/11/11 11:25:34;;;;;;;2.50;0.40;;;8.80;99.90;;;;;;5010947;28;20499;-76
2023/11/11 11:28:12;;;;;;;2.88;0.82;;;8.70;99.90;;;;;;4997750;28;20423;-76
2023/11/11 11:30:45;;;;;;;2.83;0.50;;;8.60;99.90;;;;;;5016860;28;20045;-75
2023/11/11 11:33:21;;;;;;;0.77;0.20;;;8.50;99.90;;;;;;5013482;28;20045;-75
2023/11/11 11:35:49;;;;;;;2.85;0.32;;;8.50;99.90;;;;;;5020059;28;20042;-74
2023/11/11 11:38:35;;;;;;;6.50;1.00;;;8.50;99.90;;;;;;4988598;28;20088;-77
2023/11/11 11:41:12;;;;;;;5.55;1.20;;;8.60;99.90;;;;;;5013919;28;20510;-76
2023/11/11 11:43:39;;;;;;;2.10;0.32;;;8.50;99.90;;;;;;4993697;28;20042;-76
2023/11/11 11:46:05;;;;;;;1.35;0.30;;;8.40;99.90;;;;;;5018872;28;20025;-75
2023/11/11 11:48:33;;;;;;;1.00;0.30;;;8.40;99.90;;;;;;5008139;28;20032;-75
2023/11/11 11:51:12;;;;;;;5.60;0.60;;;8.50;99.90;;;;;;5011122;28;20030;-76
2023/11/11 11:53:44;;;;;;;4.30;0.30;;;8.40;99.90;;;;;;4987929;28;20049;-75
2023/11/11 11:56:14;;;;;;;4.03;0.47;;;8.30;99.90;;;;;;5004036;28;20183;-75
2023/11/11 11:58:50;;;;;;;4.17;1.13;;;8.30;99.90;;;;;;5008467;28;20120;-77
2023/11/11 12:01:31;;;;;;;12.88;0.82;;;8.20;99.90;;;;;;5005449;28;20066;-76
2023/11/11 12:03:57;;;;;;;2.88;0.55;;;8.20;99.90;;;;;;5009052;28;20451;-76
2023/11/11 12:06:24;;;;;;;1.90;0.20;;;8.20;99.90;;;;;;5009605;28;20029;-75
2023/11/11 12:09:00;;;;;;;1.67;0.35;;;8.20;99.90;;;;;;5027650;28;20439;-75
2023/11/11 12:11:32;;;;;;;2.17;0.30;;;8.20;99.90;;;;;;4972293;28;20030;-77
2023/11/11 12:14:09;;;;;;;1.75;0.73;;;8.30;99.90;;;;;;4976381;28;20041;-75
2023/11/11 12:16:47;;;;;;;3.60;0.50;;;8.30;99.90;;;;;;5008128;28;20026;-77
2023/11/11 12:19:18;;;;;;;2.30;0.28;;;8.20;99.90;;;;;;4987426;28;20498;-76
2023/11/11 12:21:45;;;;;;;2.08;0.43;;;8.20;99.90;;;;;;5026487;28;20030;-75
2023/11/11 12:24:16;;;;;;;1.63;0.20;;;8.30;99.90;;;;;;5028961;28;20044;-75
2023/11/11 12:26:42;;;;;;;1.02;0.40;;;8.30;99.90;;;;;;5009302;28;20045;-76
2023/11/11 12:29:08;;;;;;;2.00;0.55;;;8.30;99.90;;;;;;5011326;28;20103;-75
2023/11/11 12:31:47;;;;;;;1.05;0.47;;;8.40;99.90;;;;;;4998117;28;20033;-77
2023/11/11 12:34:16;;;;;;;0.63;0.20;;;8.50;99.90;;;;;;4972104;28;20061;-75
2023/11/11 12:36:42;;;;;;;1.70;0.25;;;8.50;99.90;;;;;;4994422;28;20503;-76
2023/11/11 12:39:08;;;;;;;3.28;0.20;;;8.70;99.90;;;;;;5018728;28;20061;-75
2023/11/11 12:41:38;;;;;;;0.77;0.30;;;8.70;99.90;;;;;;5027444;28;20506;-76
2023/11/11 12:44:08;;;;;;;1.88;0.40;;;8.80;99.90;;;;;;5028872;28;20037;-76
2023/11/11 12:46:40;;;;;;;4.32;0.35;;;8.90;99.90;;;;;;5005440;28;20038;-75
2023/11/11 12:49:07;;;;;;;1.38;0.30;;;9.00;99.90;;;;;;5010984;28;20049;-76
2023/11/11 12:51:34;;;;;;;6.57;0.50;;;9.10;99.90;;;;;;5009244;28;20037;-77
2023/11/11 12:54:00;;;;;;;7.97;0.52;;;9.20;99.90;;;;;;5016460;28;20038;-76
2023/11/11 12:56:25;;;;;;;6.55;0.50;;;9.30;99.90;;;;;;4991329;28;20026;-76
2023/11/11 12:59:08;;;;;;;1.38;0.20;;;9.30;99.90;;;;;;4997401;28;20116;-76
2023/11/11 13:01:34;;;;;;;3.60;0.77;;;9.40;99.90;;;;;;5013619;28;20394;-78
2023/11/11 13:04:08;;;;;;;0.82;0.28;;;9.30;99.90;;;;;;5014022;28;20037;-76
2023/11/11 13:06:34;;;;;;;1.45;0.30;;;9.20;99.90;;;;;;5003548;28;20069;-76
2023/11/11 13:09:05;;;;;;;7.10;0.47;;;9.10;99.90;;;;;;5009666;28;20033;-75
2023/11/11 13:11:32;;;;;;;3.50;0.55;;;9.00;99.90;;;;;;5007694;28;20037;-74
2023/11/11 13:14:03;;;;;;;3.22;0.32;;;8.90;99.90;;;;;;5005748;28;20120;-76
2023/11/11 13:16:29;;;;;;;1.45;0.28;;;8.90;99.90;;;;;;4991044;28;20026;-78